Garner, Iowa
Current Conditions -  °F | °C
As of 6:55 PM on Sunday 23 Nov 2014 (Local Time) from KFXY Reporting Station
Overcast Overcast  
Wind Chill: 27°   Ceiling: 1300
Heat Index: 37°   Visibility: 10mi
Dew Point: 37°   Wind: 20mph
Humidity: 100%   Direction: 310°NW
Pressure: 29.39"   Gusts: 30mph
Location:  43.1°N, 93.6°W
Report Text: KFXY 240055Z AUTO 31017G26KT 10SM OVC013 03/03 A2939 RMK AO2
Loading
Personal Weather Stations






























Interactive Weather Map New forecast layout! Learn more

10-Day Weather Forecast

Advertisements
Track Severe Weather on mobile